Time;durP1;ratioP1;P1;durP2;ratioP2;P2;SDS_P1;SDS_P2;PMS_P1;PMS_P2;Temp;Humidity;BMP_temperature;BMP_pressure;BME280_temperature;BME280_humidity;BME280_pressure;Samples;Min_cycle;Max_cycle;Signal;HPM_P1;HPM_P2
2022/06/07 00:02:11;;;;;;;7.03;6.32;;;;;;;;;;5014466;28;20033;-50
2022/06/07 00:04:38;;;;;;;7.55;6.32;;;;;;;;;;5014421;28;20034;-45
2022/06/07 00:07:05;;;;;;;11.73;6.65;;;;;;;;;;5014018;28;20273;-46
2022/06/07 00:09:30;;;;;;;8.43;6.22;;;;;;;;;;5014350;28;20034;-46
2022/06/07 00:11:56;;;;;;;9.73;6.82;;;;;;;;;;5013986;28;20029;-46
2022/06/07 00:14:22;;;;;;;9.18;6.50;;;;;;;;;;5013896;28;20501;-47
2022/06/07 00:16:47;;;;;;;16.60;7.80;;;;;;;;;;5014018;28;20061;-46
2022/06/07 00:19:13;;;;;;;11.77;7.45;;;;;;;;;;5014037;28;20030;-46
2022/06/07 00:21:39;;;;;;;14.05;7.15;;;;;;;;;;4996542;28;20033;-46
2022/06/07 00:24:05;;;;;;;11.77;7.53;;;;;;;;;;5013678;28;20080;-46
2022/06/07 00:26:32;;;;;;;11.32;6.88;;;;;;;;;;5013867;28;20030;-46
2022/06/07 00:28:59;;;;;;;14.50;6.78;;;;;;;;;;5013651;28;20032;-48
2022/06/07 00:31:26;;;;;;;14.13;7.28;;;;;;;;;;4995907;28;20393;-45
2022/06/07 00:33:51;;;;;;;12.35;6.70;;;;;;;;;;5013377;28;20042;-45
2022/06/07 00:36:17;;;;;;;15.95;7.35;;;;;;;;;;5013403;28;20036;-45
2022/06/07 00:38:43;;;;;;;7.95;6.47;;;;;;;;;;5013708;28;20038;-45
2022/06/07 00:41:10;;;;;;;11.35;7.10;;;;;;;;;;5013338;28;20030;-48
2022/06/07 00:43:36;;;;;;;11.98;6.60;;;;;;;;;;5013362;28;20049;-47
2022/06/07 00:46:06;;;;;;;10.70;7.28;;;;;;;;;;5013324;28;20486;-46
2022/06/07 00:48:31;;;;;;;12.38;6.70;;;;;;;;;;5013675;28;20018;-46
2022/06/07 00:51:03;;;;;;;10.73;6.78;;;;;;;;;;5013346;28;20037;-45
2022/06/07 00:53:31;;;;;;;8.82;6.15;;;;;;;;;;5013240;28;20058;-46
2022/06/07 00:55:58;;;;;;;9.45;6.57;;;;;;;;;;5013422;28;20034;-47
2022/06/07 00:58:26;;;;;;;11.18;7.22;;;;;;;;;;5013436;28;20030;-46
2022/06/07 01:00:53;;;;;;;8.35;6.63;;;;;;;;;;5013138;28;20157;-46
2022/06/07 01:03:20;;;;;;;10.82;7.22;;;;;;;;;;5013206;28;20477;-47
2022/06/07 01:05:48;;;;;;;9.02;6.97;;;;;;;;;;5013329;28;20038;-46
2022/06/07 01:10:57;;;;;;;9.82;6.53;;;;;;;;;;5013416;28;20097;-46
2022/06/07 01:13:28;;;;;;;10.35;7.15;;;;;;;;;;5013336;28;20041;-47
2022/06/07 01:15:59;;;;;;;7.70;6.15;;;;;;;;;;5013117;28;20033;-49
2022/06/07 01:18:24;;;;;;;10.18;7.22;;;;;;;;;;5012906;28;20512;-46
2022/06/07 01:21:14;;;;;;;11.70;7.65;;;;;;;;;;5013078;28;20026;-47
2022/06/07 01:23:42;;;;;;;10.27;7.05;;;;;;;;;;5013189;28;20022;-48
2022/06/07 01:26:09;;;;;;;8.13;6.32;;;;;;;;;;5012976;28;20030;-47
2022/06/07 01:28:34;;;;;;;9.05;6.18;;;;;;;;;;5013040;28;20025;-49
2022/06/07 01:31:00;;;;;;;7.18;5.88;;;;;;;;;;5012600;28;20030;-47
2022/06/07 01:33:25;;;;;;;10.40;5.70;;;;;;;;;;5012589;28;20049;-47
2022/06/07 01:36:12;;;;;;;8.65;5.75;;;;;;;;;;5012567;28;20026;-46
2022/06/07 01:38:40;;;;;;;7.50;6.50;;;;;;;;;;5012599;28;20100;-47
2022/06/07 01:43:51;;;;;;;12.05;6.65;;;;;;;;;;5013013;28;20144;-48
2022/06/07 01:46:17;;;;;;;8.75;7.15;;;;;;;;;;5012534;28;20490;-47
2022/06/07 01:48:43;;;;;;;9.35;7.13;;;;;;;;;;5012770;28;20038;-47
2022/06/07 01:51:09;;;;;;;9.35;7.43;;;;;;;;;;5012429;28;20478;-46
2022/06/07 01:53:36;;;;;;;11.82;7.80;;;;;;;;;;5012684;28;20080;-48
2022/06/07 01:56:07;;;;;;;8.18;7.13;;;;;;;;;;5012659;28;20030;-45
2022/06/07 01:58:33;;;;;;;9.55;6.70;;;;;;;;;;5012458;28;20080;-48
2022/06/07 02:00:59;;;;;;;10.70;6.75;;;;;;;;;;4994862;28;20025;-46
2022/06/07 02:03:24;;;;;;;8.48;7.35;;;;;;;;;;5012659;28;20029;-46
2022/06/07 02:06:04;;;;;;;8.88;6.38;;;;;;;;;;4994949;28;20036;-46
2022/06/07 02:08:29;;;;;;;11.55;6.95;;;;;;;;;;5012681;28;20541;-48
2022/06/07 02:10:56;;;;;;;10.68;7.25;;;;;;;;;;5012306;28;20030;-46
2022/06/07 02:13:22;;;;;;;8.68;6.93;;;;;;;;;;5012235;28;20474;-47
2022/06/07 02:15:48;;;;;;;10.05;7.75;;;;;;;;;;5014005;28;20033;-48
2022/06/07 02:18:14;;;;;;;11.65;7.82;;;;;;;;;;5016077;28;20557;-51
2022/06/07 02:20:41;;;;;;;9.73;7.93;;;;;;;;;;5016398;28;20160;-47
2022/06/07 02:23:08;;;;;;;9.23;7.78;;;;;;;;;;5016088;28;20049;-46
2022/06/07 02:25:46;;;;;;;8.88;7.18;;;;;;;;;;5016227;28;20434;-46
2022/06/07 02:28:14;;;;;;;10.18;7.90;;;;;;;;;;5016249;28;20028;-49
2022/06/07 02:30:41;;;;;;;9.82;8.07;;;;;;;;;;5015928;28;20101;-47
2022/06/07 02:33:08;;;;;;;9.38;7.10;;;;;;;;;;5015799;28;20050;-46
2022/06/07 02:35:34;;;;;;;8.77;6.95;;;;;;;;;;5015677;28;20061;-48
2022/06/07 02:38:00;;;;;;;7.78;6.97;;;;;;;;;;5016009;28;20111;-46
2022/06/07 02:40:26;;;;;;;8.05;7.25;;;;;;;;;;5015724;28;20363;-50
2022/06/07 02:42:51;;;;;;;8.88;6.78;;;;;;;;;;4998401;28;20034;-46
2022/06/07 02:45:17;;;;;;;12.63;6.32;;;;;;;;;;5015556;28;20466;-46
2022/06/07 02:47:43;;;;;;;6.68;5.57;;;;;;;;;;5015598;28;20065;-47
2022/06/07 02:50:09;;;;;;;6.60;5.80;;;;;;;;;;5015840;28;20053;-46
2022/06/07 02:52:35;;;;;;;8.05;5.93;;;;;;;;;;4998301;28;20037;-47
2022/06/07 02:55:00;;;;;;;9.98;7.45;;;;;;;;;;5015727;28;20030;-47
2022/06/07 02:57:27;;;;;;;12.40;8.32;;;;;;;;;;4997742;28;20037;-47
2022/06/07 02:59:52;;;;;;;12.07;8.32;;;;;;;;;;5015652;28;20490;-46
2022/06/07 03:02:18;;;;;;;8.88;7.45;;;;;;;;;;5015285;28;20052;-46
2022/06/07 03:04:43;;;;;;;9.07;7.45;;;;;;;;;;5015545;28;20429;-45
2022/06/07 03:07:09;;;;;;;10.27;8.10;;;;;;;;;;5015248;28;20144;-46
2022/06/07 03:09:35;;;;;;;11.55;8.75;;;;;;;;;;5015131;28;20108;-47
2022/06/07 03:12:01;;;;;;;9.68;8.00;;;;;;;;;;5015142;28;20037;-46
2022/06/07 03:14:26;;;;;;;9.27;7.93;;;;;;;;;;5015032;28;20033;-48
2022/06/07 03:16:52;;;;;;;22.13;7.60;;;;;;;;;;5014966;28;20030;-48
2022/06/07 03:19:17;;;;;;;9.10;6.45;;;;;;;;;;5015224;28;20381;-45
2022/06/07 03:21:43;;;;;;;9.90;7.90;;;;;;;;;;5015212;28;20391;-47
2022/06/07 03:24:08;;;;;;;9.30;7.45;;;;;;;;;;5014758;28;20034;-46
2022/06/07 03:26:34;;;;;;;8.70;6.75;;;;;;;;;;5013959;28;20045;-45
2022/06/07 03:28:59;;;;;;;10.40;8.00;;;;;;;;;;5014892;28;20072;-46
2022/06/07 03:31:25;;;;;;;9.95;6.65;;;;;;;;;;5014982;28;20425;-46
2022/06/07 03:33:51;;;;;;;8.68;7.00;;;;;;;;;;5014617;28;20042;-47
2022/06/07 03:36:28;;;;;;;7.35;6.40;;;;;;;;;;5014911;28;20033;-46
2022/06/07 03:38:59;;;;;;;7.00;6.30;;;;;;;;;;5014720;28;20026;-47
2022/06/07 03:41:28;;;;;;;6.97;5.93;;;;;;;;;;5014536;28;20026;-46
2022/06/07 03:43:53;;;;;;;7.93;5.93;;;;;;;;;;5014772;28;20036;-46
2022/06/07 03:46:23;;;;;;;7.47;6.50;;;;;;;;;;5014780;28;20018;-48
2022/06/07 03:48:49;;;;;;;8.55;6.45;;;;;;;;;;5014686;28;20018;-49
2022/06/07 03:51:17;;;;;;;9.02;6.32;;;;;;;;;;5014456;28;20045;-49
2022/06/07 03:53:44;;;;;;;9.23;7.10;;;;;;;;;;4997151;28;20054;-47
2022/06/07 03:56:11;;;;;;;8.85;6.13;;;;;;;;;;5014500;28;20038;-47
2022/06/07 03:58:40;;;;;;;8.35;6.57;;;;;;;;;;5014549;28;20026;-48
2022/06/07 04:01:08;;;;;;;8.95;6.70;;;;;;;;;;5014180;28;20414;-47
2022/06/07 04:03:34;;;;;;;8.73;6.43;;;;;;;;;;5014102;28;20467;-47
2022/06/07 04:06:01;;;;;;;6.53;5.75;;;;;;;;;;5014121;28;20044;-47
2022/06/07 04:08:27;;;;;;;6.90;6.20;;;;;;;;;;5014258;28;20054;-48
2022/06/07 04:10:53;;;;;;;8.63;7.13;;;;;;;;;;5014346;28;20049;-48
2022/06/07 04:13:21;;;;;;;9.23;6.72;;;;;;;;;;5013911;28;20080;-47
2022/06/07 04:15:47;;;;;;;9.70;6.13;;;;;;;;;;5014180;28;20029;-46
2022/06/07 04:18:13;;;;;;;8.52;6.65;;;;;;;;;;5014206;28;20088;-47
2022/06/07 04:20:39;;;;;;;6.43;5.82;;;;;;;;;;5014035;28;20026;-47
2022/06/07 04:23:05;;;;;;;11.23;7.93;;;;;;;;;;5013732;28;20508;-47
2022/06/07 04:25:33;;;;;;;9.60;7.60;;;;;;;;;;5013809;28;20056;-48
2022/06/07 04:27:59;;;;;;;10.00;6.50;;;;;;;;;;5013587;28;20022;-50
2022/06/07 04:30:25;;;;;;;8.98;7.60;;;;;;;;;;4996105;28;20030;-49
2022/06/07 04:32:50;;;;;;;7.38;6.47;;;;;;;;;;5013528;28;20128;-47
2022/06/07 04:35:18;;;;;;;9.95;7.03;;;;;;;;;;5013842;28;20053;-50
2022/06/07 04:37:47;;;;;;;16.33;7.55;;;;;;;;;;5013076;28;20619;-53
2022/06/07 04:40:14;;;;;;;8.02;6.93;;;;;;;;;;5013816;28;20022;-49
2022/06/07 04:42:41;;;;;;;7.72;6.25;;;;;;;;;;5013432;28;20391;-48
2022/06/07 04:45:09;;;;;;;7.57;5.20;;;;;;;;;;5013621;28;20026;-53
2022/06/07 04:47:36;;;;;;;6.65;4.88;;;;;;;;;;5013604;28;20034;-51
2022/06/07 04:50:03;;;;;;;7.00;5.90;;;;;;;;;;5013181;28;20022;-46
2022/06/07 04:52:29;;;;;;;8.00;6.05;;;;;;;;;;5013019;28;20485;-53
2022/06/07 04:54:54;;;;;;;9.82;6.82;;;;;;;;;;5013298;28;20057;-50
2022/06/07 04:57:20;;;;;;;6.78;5.70;;;;;;;;;;5012968;28;20377;-48
2022/06/07 04:59:45;;;;;;;11.70;8.38;;;;;;;;;;5013270;28;20022;-50
2022/06/07 05:02:10;;;;;;;11.50;7.57;;;;;;;;;;5013315;28;20480;-49
2022/06/07 05:04:36;;;;;;;5.03;4.47;;;;;;;;;;5013289;28;20496;-52
2022/06/07 05:07:01;;;;;;;5.60;4.93;;;;;;;;;;5012064;28;20103;-50
2022/06/07 05:09:27;;;;;;;10.73;6.05;;;;;;;;;;5011094;28;20025;-48
2022/06/07 05:11:53;;;;;;;8.13;5.22;;;;;;;;;;5013118;28;20037;-47
2022/06/07 05:14:19;;;;;;;6.03;5.43;;;;;;;;;;5012999;28;20045;-49
2022/06/07 05:16:45;;;;;;;5.70;4.88;;;;;;;;;;5012020;28;20034;-49
2022/06/07 05:19:12;;;;;;;6.65;4.95;;;;;;;;;;5012411;28;20029;-48
2022/06/07 05:21:38;;;;;;;5.30;4.72;;;;;;;;;;5012604;28;20029;-47
2022/06/07 05:24:04;;;;;;;7.43;4.82;;;;;;;;;;5011288;28;20482;-47
2022/06/07 05:26:37;;;;;;;5.57;4.80;;;;;;;;;;5011176;28;20033;-46
2022/06/07 05:29:04;;;;;;;5.10;4.38;;;;;;;;;;5011918;28;20030;-48
2022/06/07 05:31:30;;;;;;;6.28;4.57;;;;;;;;;;5012737;28;20110;-51
2022/06/07 05:33:55;;;;;;;6.82;4.82;;;;;;;;;;5012563;28;20672;-46
2022/06/07 05:36:21;;;;;;;8.73;4.55;;;;;;;;;;5012586;28;20065;-48
2022/06/07 05:38:47;;;;;;;6.35;4.60;;;;;;;;;;5012640;28;20026;-48
2022/06/07 05:41:24;;;;;;;5.65;4.43;;;;;;;;;;4994785;28;20478;-47
2022/06/07 05:43:50;;;;;;;8.45;5.28;;;;;;;;;;4994755;28;20050;-46
2022/06/07 05:46:16;;;;;;;11.73;6.63;;;;;;;;;;5012560;28;20054;-47
2022/06/07 05:48:41;;;;;;;4.20;3.80;;;;;;;;;;5012418;28;20478;-48
2022/06/07 05:51:07;;;;;;;5.68;4.05;;;;;;;;;;5014913;28;20540;-46
2022/06/07 05:53:32;;;;;;;15.00;6.93;;;;;;;;;;5016815;28;20026;-47
2022/06/07 05:56:05;;;;;;;4.65;4.03;;;;;;;;;;5016352;28;20022;-51
2022/06/07 05:58:30;;;;;;;28.52;5.00;;;;;;;;;;5016744;28;20034;-50
2022/06/07 06:00:56;;;;;;;4.10;3.22;;;;;;;;;;5016644;28;20520;-49
2022/06/07 06:03:21;;;;;;;5.40;3.10;;;;;;;;;;5016587;28;20048;-53
2022/06/07 06:05:48;;;;;;;4.60;2.78;;;;;;;;;;5016606;28;20021;-51
2022/06/07 06:11:09;;;;;;;5.13;3.40;;;;;;;;;;5000152;28;20175;-50
2022/06/07 06:13:35;;;;;;;3.47;3.17;;;;;;;;;;5014570;28;20026;-48
2022/06/07 06:16:03;;;;;;;3.90;2.63;;;;;;;;;;5016083;28;20049;-52
2022/06/07 06:18:29;;;;;;;4.93;2.60;;;;;;;;;;5016340;28;20355;-48
2022/06/07 06:20:55;;;;;;;2.60;2.05;;;;;;;;;;5016256;28;20084;-49
2022/06/07 06:23:21;;;;;;;3.33;2.53;;;;;;;;;;5015928;28;20029;-52
2022/06/07 06:25:46;;;;;;;2.33;2.13;;;;;;;;;;5016197;28;20041;-48
2022/06/07 06:28:12;;;;;;;2.42;2.22;;;;;;;;;;5015832;28;20033;-47
2022/06/07 06:30:37;;;;;;;5.53;3.60;;;;;;;;;;5016339;28;20036;-51
2022/06/07 06:33:03;;;;;;;4.25;2.20;;;;;;;;;;5006545;28;20502;-52
2022/06/07 06:35:28;;;;;;;2.25;2.03;;;;;;;;;;4996508;28;20462;-51
2022/06/07 06:37:53;;;;;;;2.00;1.90;;;;;;;;;;4995972;28;20030;-51
2022/06/07 06:40:19;;;;;;;2.70;2.50;;;;;;;;;;4995976;28;20026;-49
2022/06/07 06:42:44;;;;;;;4.65;2.00;;;;;;;;;;4996051;28;20076;-48
2022/06/07 06:45:10;;;;;;;1.75;1.63;;;;;;;;;;4996350;28;20029;-47
2022/06/07 06:47:36;;;;;;;2.13;1.70;;;;;;;;;;4995908;28;20022;-50
2022/06/07 06:50:02;;;;;;;1.67;1.58;;;;;;;;;;4996214;28;20030;-51
2022/06/07 06:52:27;;;;;;;1.95;1.60;;;;;;;;;;4996135;28;20510;-51
2022/06/07 06:54:53;;;;;;;2.40;1.60;;;;;;;;;;4978375;28;20030;-50
2022/06/07 06:57:18;;;;;;;2.15;1.77;;;;;;;;;;4995653;28;20040;-51
2022/06/07 06:59:44;;;;;;;1.40;1.30;;;;;;;;;;4995672;28;20038;-47
2022/06/07 07:02:12;;;;;;;2.42;1.80;;;;;;;;;;4995624;28;20026;-47
2022/06/07 07:04:38;;;;;;;1.70;1.60;;;;;;;;;;4995561;28;20034;-47
2022/06/07 07:07:04;;;;;;;1.38;1.27;;;;;;;;;;4995608;28;20093;-52
2022/06/07 07:09:29;;;;;;;2.67;1.80;;;;;;;;;;4995533;28;20022;-52
2022/06/07 07:11:56;;;;;;;1.65;1.55;;;;;;;;;;4995706;28;20081;-51
2022/06/07 07:14:21;;;;;;;2.30;2.00;;;;;;;;;;4995771;28;20426;-53
2022/06/07 07:16:50;;;;;;;1.80;1.60;;;;;;;;;;4995620;28;20030;-48
2022/06/07 07:19:17;;;;;;;1.92;1.70;;;;;;;;;;4995685;28;20033;-49
2022/06/07 07:21:46;;;;;;;1.83;1.73;;;;;;;;;;4995353;28;20030;-47
2022/06/07 07:24:14;;;;;;;1.90;1.80;;;;;;;;;;4995348;28;20057;-48
2022/06/07 07:26:43;;;;;;;2.00;1.90;;;;;;;;;;4995469;28;20033;-47
2022/06/07 07:29:11;;;;;;;1.52;1.42;;;;;;;;;;4995203;28;20545;-47
2022/06/07 07:31:37;;;;;;;2.88;1.70;;;;;;;;;;4977659;28;20041;-46
2022/06/07 07:34:05;;;;;;;2.83;2.17;;;;;;;;;;5012234;28;20045;-48
2022/06/07 07:36:31;;;;;;;2.20;2.08;;;;;;;;;;4997102;28;20037;-47
2022/06/07 07:38:57;;;;;;;3.38;2.25;;;;;;;;;;5015114;28;20022;-48
2022/06/07 07:41:32;;;;;;;2.10;1.90;;;;;;;;;;5014813;28;20022;-47
2022/06/07 07:43:59;;;;;;;2.30;2.10;;;;;;;;;;4997254;28;20033;-50
2022/06/07 07:46:28;;;;;;;4.30;2.10;;;;;;;;;;5014511;28;20056;-47
2022/06/07 07:48:54;;;;;;;2.10;1.98;;;;;;;;;;5014440;28;20070;-47
2022/06/07 07:51:29;;;;;;;2.72;2.20;;;;;;;;;;5014636;28;20057;-47
2022/06/07 07:53:56;;;;;;;1.48;1.38;;;;;;;;;;5014407;28;20072;-46
2022/06/07 07:56:23;;;;;;;2.38;2.15;;;;;;;;;;5014415;28;20030;-52
2022/06/07 07:58:49;;;;;;;2.30;2.10;;;;;;;;;;4996954;28;20489;-47
2022/06/07 08:01:23;;;;;;;3.40;1.90;;;;;;;;;;5014000;28;20032;-48
2022/06/07 08:03:50;;;;;;;4.30;2.00;;;;;;;;;;5014174;28;20060;-49
2022/06/07 08:06:18;;;;;;;1.83;1.73;;;;;;;;;;5014149;28;20028;-46
2022/06/07 08:08:49;;;;;;;3.03;2.30;;;;;;;;;;4996135;28;20057;-46
2022/06/07 08:11:17;;;;;;;2.22;2.00;;;;;;;;;;5014230;28;20053;-46
2022/06/07 08:13:42;;;;;;;2.58;2.30;;;;;;;;;;5013153;28;20057;-47
2022/06/07 08:16:09;;;;;;;3.95;2.47;;;;;;;;;;5014064;28;20037;-47
2022/06/07 08:18:35;;;;;;;2.25;2.08;;;;;;;;;;5013786;28;20034;-46
2022/06/07 08:21:05;;;;;;;2.00;1.90;;;;;;;;;;5013763;28;20033;-46
2022/06/07 08:23:31;;;;;;;2.60;2.40;;;;;;;;;;5014025;28;20030;-46
2022/06/07 08:25:58;;;;;;;2.42;2.30;;;;;;;;;;5013588;28;20429;-47
2022/06/07 08:28:25;;;;;;;2.53;2.33;;;;;;;;;;5013967;28;20381;-46
2022/06/07 08:30:51;;;;;;;2.47;2.30;;;;;;;;;;5013048;28;20026;-46
2022/06/07 08:38:52;;;;;;;2.10;2.00;;;;;;;;;;5020406;28;20041;-47
2022/06/07 08:41:21;;;;;;;2.42;2.22;;;;;;;;;;5017293;28;20055;-45
2022/06/07 08:43:47;;;;;;;2.50;2.30;;;;;;;;;;5013377;28;20018;-48
2022/06/07 08:46:17;;;;;;;2.00;1.90;;;;;;;;;;5013324;28;20026;-50
2022/06/07 08:48:43;;;;;;;2.75;2.40;;;;;;;;;;5013222;28;20121;-48
2022/06/07 08:51:17;;;;;;;2.00;1.90;;;;;;;;;;5013269;28;20037;-45
2022/06/07 08:53:50;;;;;;;6.45;2.22;;;;;;;;;;5020828;28;20390;-54
2022/06/07 08:56:23;;;;;;;2.10;1.90;;;;;;;;;;5027397;28;20033;-48
2022/06/07 08:58:51;;;;;;;2.67;2.05;;;;;;;;;;5033002;28;20026;-47
2022/06/07 09:01:27;;;;;;;3.67;2.20;;;;;;;;;;5027261;28;20159;-48
2022/06/07 09:04:09;;;;;;;1.90;1.80;;;;;;;;;;5014164;28;20044;-45
2022/06/07 09:06:40;;;;;;;2.58;2.28;;;;;;;;;;5009176;28;20033;-48
2022/06/07 09:09:07;;;;;;;1.85;1.75;;;;;;;;;;5023515;28;20079;-46
2022/06/07 09:14:42;;;;;;;2.58;2.20;;;;;;;;;;5019544;28;20096;-48
2022/06/07 09:17:16;;;;;;;1.45;1.35;;;;;;;;;;5021386;28;20037;-47
2022/06/07 09:19:44;;;;;;;2.20;2.10;;;;;;;;;;5021505;28;20017;-45
2022/06/07 09:22:36;;;;;;;2.30;1.98;;;;;;;;;;5018614;28;20021;-45
2022/06/07 09:25:19;;;;;;;6.25;2.03;;;;;;;;;;5021856;28;20089;-46
2022/06/07 09:27:45;;;;;;;3.85;2.00;;;;;;;;;;5022666;28;20071;-47
2022/06/07 09:30:17;;;;;;;2.55;1.90;;;;;;;;;;5029882;28;20425;-45
2022/06/07 09:32:49;;;;;;;1.73;1.63;;;;;;;;;;5032099;28;20144;-48
2022/06/07 09:35:37;;;;;;;1.80;1.63;;;;;;;;;;5032601;28;20363;-48
2022/06/07 09:38:11;;;;;;;2.25;1.80;;;;;;;;;;5032599;28;20080;-46
2022/06/07 09:40:42;;;;;;;2.00;1.90;;;;;;;;;;5032309;28;20022;-49
2022/06/07 09:43:17;;;;;;;3.83;1.80;;;;;;;;;;5032515;28;20021;-50
2022/06/07 09:46:07;;;;;;;1.80;1.70;;;;;;;;;;5032330;28;20072;-45
2022/06/07 09:48:39;;;;;;;2.25;1.70;;;;;;;;;;5032238;28;20029;-52
2022/06/07 09:51:15;;;;;;;2.42;2.20;;;;;;;;;;5032115;28;20068;-46
2022/06/07 09:53:44;;;;;;;1.67;1.58;;;;;;;;;;5032183;28;20025;-50
2022/06/07 09:56:20;;;;;;;2.33;1.60;;;;;;;;;;5032273;28;20037;-48
2022/06/07 09:58:59;;;;;;;1.90;1.80;;;;;;;;;;5031900;28;20040;-49
2022/06/07 10:01:30;;;;;;;;;;;;;;;;;;5024521;28;20025;-46
2022/06/07 10:04:10;;;;;;;1.70;1.60;;;;;;;;;;5022871;28;19924;-47
2022/06/07 10:06:43;;;;;;;2.10;1.70;;;;;;;;;;5022491;28;20013;-45
2022/06/07 10:09:20;;;;;;;1.83;1.60;;;;;;;;;;5015197;28;20029;-47
2022/06/07 10:11:59;;;;;;;1.92;1.70;;;;;;;;;;5012459;28;20022;-49
2022/06/07 10:14:52;;;;;;;1.80;1.70;;;;;;;;;;5012009;28;20440;-47
2022/06/07 10:17:40;;;;;;;1.70;1.60;;;;;;;;;;5011099;28;20121;-44
2022/06/07 10:20:16;;;;;;;2.20;1.90;;;;;;;;;;5012061;28;20125;-45
2022/06/07 10:22:43;;;;;;;1.90;1.80;;;;;;;;;;5011915;28;20073;-47
2022/06/07 10:25:35;;;;;;;1.75;1.65;;;;;;;;;;5012006;28;20084;-51
2022/06/07 10:28:17;;;;;;;1.90;1.80;;;;;;;;;;5012425;28;20116;-46
2022/06/07 10:30:58;;;;;;;2.00;1.85;;;;;;;;;;5012093;28;20034;-48
2022/06/07 10:33:26;;;;;;;1.80;1.70;;;;;;;;;;5011911;28;20498;-50
2022/06/07 10:36:05;;;;;;;1.90;1.80;;;;;;;;;;5017368;28;20042;-47
2022/06/07 10:38:42;;;;;;;2.53;1.77;;;;;;;;;;5015904;28;20034;-45
2022/06/07 10:41:22;;;;;;;2.00;1.90;;;;;;;;;;5015836;28;20022;-48
2022/06/07 10:43:56;;;;;;;2.72;1.70;;;;;;;;;;5015735;28;20473;-51
2022/06/07 10:46:22;;;;;;;2.17;1.90;;;;;;;;;;5015794;28;20160;-45
2022/06/07 10:49:21;;;;;;;1.95;1.85;;;;;;;;;;5015647;28;20450;-46
2022/06/07 10:54:55;;;;;;;1.67;1.58;;;;;;;;;;5015873;28;20041;-45
2022/06/07 10:57:43;;;;;;;2.15;1.65;;;;;;;;;;5015483;28;20041;-46
2022/06/07 11:00:35;;;;;;;1.67;1.57;;;;;;;;;;4978248;28;20076;-44
2022/06/07 11:03:28;;;;;;;1.67;1.58;;;;;;;;;;5006256;28;20042;-47
2022/06/07 11:09:22;;;;;;;1.80;1.70;;;;;;;;;;5000651;28;20048;-45
2022/06/07 11:11:52;;;;;;;1.70;1.60;;;;;;;;;;5023046;28;20025;-43
2022/06/07 11:14:32;;;;;;;1.85;1.75;;;;;;;;;;5022796;28;20454;-43
2022/06/07 11:17:35;;;;;;;2.05;1.85;;;;;;;;;;5022655;28;20026;-50
2022/06/07 11:20:14;;;;;;;3.50;1.83;;;;;;;;;;5024851;28;20069;-46
2022/06/07 11:23:05;;;;;;;1.77;1.67;;;;;;;;;;5023984;28;20468;-44
2022/06/07 11:25:39;;;;;;;2.40;2.20;;;;;;;;;;5023801;28;20089;-50
2022/06/07 11:28:12;;;;;;;3.15;1.90;;;;;;;;;;5019748;28;20133;-48
2022/06/07 11:30:38;;;;;;;2.83;2.03;;;;;;;;;;5014874;28;20048;-48
2022/06/07 11:33:44;;;;;;;1.92;1.83;;;;;;;;;;5014567;28;20136;-49
2022/06/07 11:36:12;;;;;;;3.80;2.30;;;;;;;;;;4962960;28;20049;-46
2022/06/07 11:39:00;;;;;;;2.08;1.98;;;;;;;;;;5014948;28;20050;-46
2022/06/07 11:41:37;;;;;;;3.38;2.10;;;;;;;;;;5014855;28;20023;-45
2022/06/07 11:44:11;;;;;;;1.90;1.80;;;;;;;;;;5014501;28;20112;-46
2022/06/07 11:46:50;;;;;;;2.08;1.95;;;;;;;;;;5014497;28;20025;-48
2022/06/07 11:49:27;;;;;;;2.03;1.80;;;;;;;;;;5013548;28;20034;-47
2022/06/07 11:52:11;;;;;;;3.78;1.80;;;;;;;;;;5024427;28;20037;-45
2022/06/07 11:54:45;;;;;;;2.00;1.90;;;;;;;;;;5024031;28;20018;-45
2022/06/07 11:57:58;;;;;;;2.03;1.90;;;;;;;;;;5014408;28;20026;-47
2022/06/07 12:00:37;;;;;;;1.90;1.80;;;;;;;;;;4978403;28;20129;-49
2022/06/07 12:03:08;;;;;;;2.25;1.77;;;;;;;;;;5014511;28;20373;-47
2022/06/07 12:05:46;;;;;;;1.80;1.70;;;;;;;;;;5014364;28;20076;-46
2022/06/07 12:08:31;;;;;;;2.08;1.83;;;;;;;;;;5014381;28;20034;-48
2022/06/07 12:11:02;;;;;;;1.83;1.73;;;;;;;;;;5022512;28;20064;-47
2022/06/07 12:13:54;;;;;;;2.00;1.90;;;;;;;;;;5030893;28;20037;-49
2022/06/07 12:16:26;;;;;;;2.67;2.47;;;;;;;;;;5033923;28;20025;-49
2022/06/07 12:18:54;;;;;;;2.30;2.10;;;;;;;;;;5024654;28;20104;-49
2022/06/07 12:21:21;;;;;;;1.98;1.88;;;;;;;;;;5022217;28;20038;-49
2022/06/07 12:23:49;;;;;;;1.90;1.80;;;;;;;;;;5024128;28;20026;-45
2022/06/07 12:26:30;;;;;;;2.15;2.00;;;;;;;;;;5033632;28;20370;-44
2022/06/07 12:28:57;;;;;;;2.60;2.40;;;;;;;;;;5024614;28;20496;-45
2022/06/07 12:31:30;;;;;;;2.15;1.95;;;;;;;;;;5022857;28;20458;-44
2022/06/07 12:33:59;;;;;;;2.15;1.98;;;;;;;;;;4993936;28;20048;-46
2022/06/07 12:36:30;;;;;;;12.67;2.30;;;;;;;;;;4994014;28;20184;-49
2022/06/07 12:38:59;;;;;;;2.33;2.10;;;;;;;;;;5244192;23;20295;-48
2022/06/07 12:41:27;;;;;;;2.90;2.38;;;;;;;;;;5013217;28;20061;-49
2022/06/07 12:43:56;;;;;;;4.07;2.30;;;;;;;;;;5013726;28;20436;-47
2022/06/07 12:46:29;;;;;;;1.90;1.80;;;;;;;;;;5013642;28;20026;-48
2022/06/07 12:48:57;;;;;;;3.30;2.00;;;;;;;;;;5013434;28;20492;-46
2022/06/07 12:51:34;;;;;;;1.90;1.80;;;;;;;;;;5013594;28;20030;-46
2022/06/07 12:54:16;;;;;;;2.55;2.35;;;;;;;;;;5016209;28;20387;-46
2022/06/07 12:56:44;;;;;;;7.63;2.15;;;;;;;;;;5031482;28;20423;-46
2022/06/07 12:59:21;;;;;;;2.42;1.90;;;;;;;;;;5032951;28;20033;-47
2022/06/07 13:01:49;;;;;;;2.15;2.05;;;;;;;;;;5032907;28;20063;-45
2022/06/07 13:04:36;;;;;;;3.72;1.88;;;;;;;;;;5030835;28;20056;-51
2022/06/07 13:07:20;;;;;;;3.83;2.20;;;;;;;;;;5015164;28;20021;-48
2022/06/07 13:09:48;;;;;;;4.10;2.30;;;;;;;;;;5013385;28;20026;-47
2022/06/07 13:12:42;;;;;;;2.20;2.00;;;;;;;;;;5014525;28;20056;-47
2022/06/07 13:15:19;;;;;;;2.40;2.20;;;;;;;;;;5015724;28;20318;-46
2022/06/07 13:17:54;;;;;;;2.40;1.83;;;;;;;;;;5020698;28;20113;-46
2022/06/07 13:20:43;;;;;;;2.08;1.88;;;;;;;;;;5032536;28;20026;-46
2022/06/07 13:23:11;;;;;;;;;;;;;;;;;;5033161;28;20052;-50
2022/06/07 13:25:36;;;;;;;2.22;2.03;;;;;;;;;;5026192;28;19914;-46
2022/06/07 13:28:05;;;;;;;8.10;4.72;;;;;;;;;;5021055;28;20243;-47
2022/06/07 13:30:36;;;;;;;5.43;2.47;;;;;;;;;;5022474;28;20080;-46
2022/06/07 13:33:19;;;;;;;4.10;1.85;;;;;;;;;;5021508;28;20025;-49
2022/06/07 13:35:57;;;;;;;2.72;2.10;;;;;;;;;;5021543;28;20095;-48
2022/06/07 13:38:25;;;;;;;2.00;1.90;;;;;;;;;;5022964;28;20049;-49
2022/06/07 13:41:18;;;;;;;2.22;1.90;;;;;;;;;;5012604;28;20049;-48
2022/06/07 13:44:02;;;;;;;2.25;1.80;;;;;;;;;;5012959;28;20091;-47
2022/06/07 13:46:54;;;;;;;4.47;1.98;;;;;;;;;;5026344;28;20033;-48
2022/06/07 13:55:29;;;;;;;2.40;1.83;;;;;;;;;;5032287;28;20539;-50
2022/06/07 13:57:54;;;;;;;3.97;2.10;;;;;;;;;;4993536;28;20042;-48
2022/06/07 14:00:19;;;;;;;3.55;1.88;;;;;;;;;;5028346;28;20548;-48
2022/06/07 14:02:46;;;;;;;2.30;1.90;;;;;;;;;;5017653;28;20505;-49
2022/06/07 14:05:34;;;;;;;1.88;1.77;;;;;;;;;;5012613;28;20026;-46
2022/06/07 14:08:00;;;;;;;1.98;1.77;;;;;;;;;;5010568;28;20377;-48
2022/06/07 14:10:26;;;;;;;4.13;2.28;;;;;;;;;;5011120;28;20030;-50
2022/06/07 14:12:53;;;;;;;4.20;2.13;;;;;;;;;;5014321;28;20087;-46
2022/06/07 14:15:19;;;;;;;2.58;2.10;;;;;;;;;;5014430;28;20092;-46
2022/06/07 14:17:48;;;;;;;4.03;2.00;;;;;;;;;;5014641;28;20087;-48
2022/06/07 14:20:22;;;;;;;2.10;1.90;;;;;;;;;;5014471;28;20495;-47
2022/06/07 14:22:53;;;;;;;3.72;1.90;;;;;;;;;;5014708;28;20101;-47
2022/06/07 14:25:23;;;;;;;3.40;2.10;;;;;;;;;;5014420;28;20417;-49
2022/06/07 14:27:49;;;;;;;2.78;1.60;;;;;;;;;;5014589;28;20105;-50
2022/06/07 14:30:15;;;;;;;1.70;1.60;;;;;;;;;;5014806;28;20034;-49
2022/06/07 14:32:49;;;;;;;2.15;1.95;;;;;;;;;;5014711;28;20396;-48
2022/06/07 14:35:27;;;;;;;2.20;2.00;;;;;;;;;;5014421;28;20059;-47
2022/06/07 14:37:57;;;;;;;2.28;2.08;;;;;;;;;;5014256;28;20587;-50
2022/06/07 14:40:30;;;;;;;2.17;1.80;;;;;;;;;;5014027;28;20054;-51
2022/06/07 14:42:56;;;;;;;3.15;1.98;;;;;;;;;;5014118;28;20481;-51
2022/06/07 14:45:25;;;;;;;4.93;2.00;;;;;;;;;;5014411;28;20040;-48
2022/06/07 14:47:56;;;;;;;2.03;1.80;;;;;;;;;;5014266;28;20030;-51
2022/06/07 14:50:22;;;;;;;2.63;1.90;;;;;;;;;;5014098;28;20084;-46
2022/06/07 14:52:49;;;;;;;2.50;1.85;;;;;;;;;;5014116;28;20022;-46
2022/06/07 14:55:19;;;;;;;3.03;2.50;;;;;;;;;;5001728;28;20113;-47
2022/06/07 14:57:47;;;;;;;1.88;1.77;;;;;;;;;;5025192;28;20025;-47
2022/06/07 15:00:18;;;;;;;3.22;1.92;;;;;;;;;;5033596;28;20047;-47
2022/06/07 15:02:45;;;;;;;3.22;1.90;;;;;;;;;;5033649;28;20033;-50
2022/06/07 15:05:41;;;;;;;4.10;2.05;;;;;;;;;;5030531;28;20033;-50
2022/06/07 15:08:16;;;;;;;2.35;2.08;;;;;;;;;;4983546;28;20093;-49
2022/06/07 15:10:42;;;;;;;1.88;1.77;;;;;;;;;;4994306;28;20054;-47
2022/06/07 15:13:31;;;;;;;3.10;1.75;;;;;;;;;;4994015;28;20108;-46
2022/06/07 15:16:10;;;;;;;2.38;2.15;;;;;;;;;;4993923;28;20026;-50
2022/06/07 15:18:39;;;;;;;4.32;2.22;;;;;;;;;;4994144;28;20034;-46
2022/06/07 15:21:05;;;;;;;4.60;2.10;;;;;;;;;;5004578;28;20040;-49
2022/06/07 15:23:31;;;;;;;2.00;1.90;;;;;;;;;;5032877;28;20030;-48
2022/06/07 15:25:57;;;;;;;3.45;1.88;;;;;;;;;;5031119;28;20033;-49
2022/06/07 15:28:24;;;;;;;2.45;2.03;;;;;;;;;;5013371;28;20014;-48
2022/06/07 15:30:50;;;;;;;2.55;1.90;;;;;;;;;;5013406;28;20026;-50